sensor_id;sensor_type;location;lat;lon;timestamp;P1;durP1;ratioP1;P2;durP2;ratioP2
53710;SDS011;39605;52.704;6.752;2024-02-23T00:01:17;0.60;;;0.10;;
53710;SDS011;39605;52.704;6.752;2024-02-23T00:03:43;0.30;;;0.00;;
53710;SDS011;39605;52.704;6.752;2024-02-23T00:06:09;1.00;;;0.00;;
53710;SDS011;39605;52.704;6.752;2024-02-23T00:08:35;0.30;;;0.00;;
53710;SDS011;39605;52.704;6.752;2024-02-23T00:11:03;0.10;;;0.00;;
53710;SDS011;39605;52.704;6.752;2024-02-23T00:13:29;0.13;;;0.00;;
53710;SDS011;39605;52.704;6.752;2024-02-23T00:15:55;0.20;;;0.00;;
53710;SDS011;39605;52.704;6.752;2024-02-23T00:18:21;2.13;;;0.10;;
53710;SDS011;39605;52.704;6.752;2024-02-23T00:20:47;1.55;;;0.00;;
53710;SDS011;39605;52.704;6.752;2024-02-23T00:23:13;0.68;;;0.00;;
53710;SDS011;39605;52.704;6.752;2024-02-23T00:25:39;1.13;;;0.00;;
53710;SDS011;39605;52.704;6.752;2024-02-23T00:28:05;0.75;;;0.00;;
53710;SDS011;39605;52.704;6.752;2024-02-23T00:30:31;0.85;;;0.00;;
53710;SDS011;39605;52.704;6.752;2024-02-23T00:32:57;1.17;;;0.00;;
53710;SDS011;39605;52.704;6.752;2024-02-23T00:35:23;1.95;;;0.10;;
53710;SDS011;39605;52.704;6.752;2024-02-23T00:37:49;0.40;;;0.00;;
53710;SDS011;39605;52.704;6.752;2024-02-23T00:40:15;0.38;;;0.00;;
53710;SDS011;39605;52.704;6.752;2024-02-23T00:42:41;0.40;;;0.00;;
53710;SDS011;39605;52.704;6.752;2024-02-23T00:45:08;0.25;;;0.00;;
53710;SDS011;39605;52.704;6.752;2024-02-23T00:47:34;0.10;;;0.00;;
53710;SDS011;39605;52.704;6.752;2024-02-23T00:50:01;0.45;;;0.05;;
53710;SDS011;39605;52.704;6.752;2024-02-23T00:52:27;0.35;;;0.00;;
53710;SDS011;39605;52.704;6.752;2024-02-23T00:54:53;0.43;;;0.00;;
53710;SDS011;39605;52.704;6.752;2024-02-23T00:57:19;1.25;;;0.00;;
53710;SDS011;39605;52.704;6.752;2024-02-23T00:59:52;0.90;;;0.00;;
53710;SDS011;39605;52.704;6.752;2024-02-23T01:02:18;1.05;;;0.00;;
53710;SDS011;39605;52.704;6.752;2024-02-23T01:04:44;0.00;;;0.00;;
53710;SDS011;39605;52.704;6.752;2024-02-23T01:07:10;0.05;;;0.00;;
53710;SDS011;39605;52.704;6.752;2024-02-23T01:09:36;0.20;;;0.00;;
53710;SDS011;39605;52.704;6.752;2024-02-23T01:12:02;0.30;;;0.00;;
53710;SDS011;39605;52.704;6.752;2024-02-23T01:14:28;0.20;;;0.00;;
53710;SDS011;39605;52.704;6.752;2024-02-23T01:16:54;0.25;;;0.00;;
53710;SDS011;39605;52.704;6.752;2024-02-23T01:19:21;0.73;;;0.00;;
53710;SDS011;39605;52.704;6.752;2024-02-23T01:21:47;0.20;;;0.00;;
53710;SDS011;39605;52.704;6.752;2024-02-23T01:24:14;0.95;;;0.00;;
53710;SDS011;39605;52.704;6.752;2024-02-23T01:26:40;0.25;;;0.00;;
53710;SDS011;39605;52.704;6.752;2024-02-23T01:29:06;0.85;;;0.10;;
53710;SDS011;39605;52.704;6.752;2024-02-23T01:31:32;2.03;;;0.10;;
53710;SDS011;39605;52.704;6.752;2024-02-23T01:33:58;1.92;;;0.17;;
53710;SDS011;39605;52.704;6.752;2024-02-23T01:36:24;3.88;;;0.10;;
53710;SDS011;39605;52.704;6.752;2024-02-23T01:38:50;1.95;;;0.10;;
53710;SDS011;39605;52.704;6.752;2024-02-23T01:41:16;3.25;;;0.20;;
53710;SDS011;39605;52.704;6.752;2024-02-23T01:43:42;2.40;;;0.20;;
53710;SDS011;39605;52.704;6.752;2024-02-23T01:46:08;3.05;;;0.10;;
53710;SDS011;39605;52.704;6.752;2024-02-23T01:48:35;5.63;;;0.30;;
53710;SDS011;39605;52.704;6.752;2024-02-23T01:51:01;4.68;;;0.22;;
53710;SDS011;39605;52.704;6.752;2024-02-23T01:53:27;2.13;;;0.30;;
53710;SDS011;39605;52.704;6.752;2024-02-23T01:55:53;0.82;;;0.20;;
53710;SDS011;39605;52.704;6.752;2024-02-23T01:58:20;2.63;;;0.30;;
53710;SDS011;39605;52.704;6.752;2024-02-23T02:00:46;3.13;;;0.30;;
53710;SDS011;39605;52.704;6.752;2024-02-23T02:03:12;6.40;;;0.30;;
53710;SDS011;39605;52.704;6.752;2024-02-23T02:05:38;4.25;;;0.47;;
53710;SDS011;39605;52.704;6.752;2024-02-23T02:08:05;4.72;;;0.30;;
53710;SDS011;39605;52.704;6.752;2024-02-23T02:10:31;2.70;;;0.38;;
53710;SDS011;39605;52.704;6.752;2024-02-23T02:13:04;3.80;;;0.40;;
53710;SDS011;39605;52.704;6.752;2024-02-23T02:15:30;8.00;;;0.90;;
53710;SDS011;39605;52.704;6.752;2024-02-23T02:17:56;4.78;;;0.55;;
53710;SDS011;39605;52.704;6.752;2024-02-23T02:20:25;6.45;;;0.63;;
53710;SDS011;39605;52.704;6.752;2024-02-23T02:22:53;4.38;;;0.50;;
53710;SDS011;39605;52.704;6.752;2024-02-23T02:25:19;5.32;;;1.25;;
53710;SDS011;39605;52.704;6.752;2024-02-23T02:27:45;6.78;;;0.82;;
53710;SDS011;39605;52.704;6.752;2024-02-23T02:30:12;5.35;;;0.70;;
53710;SDS011;39605;52.704;6.752;2024-02-23T02:32:38;5.00;;;1.27;;
53710;SDS011;39605;52.704;6.752;2024-02-23T02:35:05;5.97;;;0.82;;
53710;SDS011;39605;52.704;6.752;2024-02-23T02:37:31;9.52;;;0.90;;
53710;SDS011;39605;52.704;6.752;2024-02-23T02:39:57;4.68;;;0.82;;
53710;SDS011;39605;52.704;6.752;2024-02-23T02:42:23;5.30;;;0.60;;
53710;SDS011;39605;52.704;6.752;2024-02-23T02:44:49;6.32;;;0.82;;
53710;SDS011;39605;52.704;6.752;2024-02-23T02:47:15;8.85;;;1.40;;
53710;SDS011;39605;52.704;6.752;2024-02-23T02:49:41;2.88;;;0.43;;
53710;SDS011;39605;52.704;6.752;2024-02-23T02:52:08;4.90;;;0.60;;
53710;SDS011;39605;52.704;6.752;2024-02-23T02:54:34;5.10;;;0.20;;
53710;SDS011;39605;52.704;6.752;2024-02-23T02:57:00;2.72;;;0.40;;
53710;SDS011;39605;52.704;6.752;2024-02-23T02:59:26;1.73;;;0.30;;
53710;SDS011;39605;52.704;6.752;2024-02-23T03:01:52;0.77;;;0.10;;
53710;SDS011;39605;52.704;6.752;2024-02-23T03:04:18;4.45;;;0.38;;
53710;SDS011;39605;52.704;6.752;2024-02-23T03:06:44;2.58;;;0.20;;
53710;SDS011;39605;52.704;6.752;2024-02-23T03:09:10;2.05;;;0.30;;
53710;SDS011;39605;52.704;6.752;2024-02-23T03:11:36;1.73;;;0.30;;
53710;SDS011;39605;52.704;6.752;2024-02-23T03:14:02;3.25;;;0.30;;
53710;SDS011;39605;52.704;6.752;2024-02-23T03:16:28;2.58;;;0.40;;
53710;SDS011;39605;52.704;6.752;2024-02-23T03:18:56;3.28;;;0.38;;
53710;SDS011;39605;52.704;6.752;2024-02-23T03:21:22;4.30;;;0.30;;
53710;SDS011;39605;52.704;6.752;2024-02-23T03:23:48;3.22;;;0.30;;
53710;SDS011;39605;52.704;6.752;2024-02-23T03:26:14;4.35;;;0.55;;
53710;SDS011;39605;52.704;6.752;2024-02-23T03:28:42;3.20;;;0.30;;
53710;SDS011;39605;52.704;6.752;2024-02-23T03:31:08;4.15;;;0.20;;
53710;SDS011;39605;52.704;6.752;2024-02-23T03:33:34;1.73;;;0.20;;
53710;SDS011;39605;52.704;6.752;2024-02-23T03:36:00;3.78;;;0.30;;
53710;SDS011;39605;52.704;6.752;2024-02-23T03:38:26;2.42;;;0.20;;
53710;SDS011;39605;52.704;6.752;2024-02-23T03:40:54;4.07;;;0.20;;
53710;SDS011;39605;52.704;6.752;2024-02-23T03:43:20;2.63;;;0.30;;
53710;SDS011;39605;52.704;6.752;2024-02-23T03:45:46;3.22;;;0.20;;
53710;SDS011;39605;52.704;6.752;2024-02-23T03:48:12;3.08;;;0.20;;
53710;SDS011;39605;52.704;6.752;2024-02-23T03:50:38;3.97;;;0.30;;
53710;SDS011;39605;52.704;6.752;2024-02-23T03:53:04;4.07;;;0.35;;
53710;SDS011;39605;52.704;6.752;2024-02-23T03:55:31;2.35;;;0.63;;
53710;SDS011;39605;52.704;6.752;2024-02-23T03:57:57;4.05;;;0.20;;
53710;SDS011;39605;52.704;6.752;2024-02-23T04:00:24;4.57;;;0.30;;
53710;SDS011;39605;52.704;6.752;2024-02-23T04:02:50;1.98;;;0.30;;
53710;SDS011;39605;52.704;6.752;2024-02-23T04:05:17;4.75;;;0.38;;
53710;SDS011;39605;52.704;6.752;2024-02-23T04:07:44;6.70;;;0.60;;
53710;SDS011;39605;52.704;6.752;2024-02-23T04:10:10;3.17;;;0.30;;
53710;SDS011;39605;52.704;6.752;2024-02-23T04:12:41;6.15;;;0.40;;
53710;SDS011;39605;52.704;6.752;2024-02-23T04:15:07;3.95;;;0.30;;
53710;SDS011;39605;52.704;6.752;2024-02-23T04:17:33;3.97;;;0.40;;
53710;SDS011;39605;52.704;6.752;2024-02-23T04:20:00;2.45;;;0.30;;
53710;SDS011;39605;52.704;6.752;2024-02-23T04:22:30;1.63;;;0.20;;
53710;SDS011;39605;52.704;6.752;2024-02-23T04:24:56;3.92;;;0.47;;
53710;SDS011;39605;52.704;6.752;2024-02-23T04:27:22;3.33;;;0.20;;
53710;SDS011;39605;52.704;6.752;2024-02-23T04:29:48;3.22;;;0.40;;
53710;SDS011;39605;52.704;6.752;2024-02-23T04:32:14;2.70;;;0.73;;
53710;SDS011;39605;52.704;6.752;2024-02-23T04:34:41;8.93;;;2.67;;
53710;SDS011;39605;52.704;6.752;2024-02-23T04:37:07;5.47;;;1.23;;
53710;SDS011;39605;52.704;6.752;2024-02-23T04:39:33;4.93;;;1.77;;
53710;SDS011;39605;52.704;6.752;2024-02-23T04:41:59;6.32;;;1.80;;
53710;SDS011;39605;52.704;6.752;2024-02-23T04:44:25;6.72;;;2.53;;
53710;SDS011;39605;52.704;6.752;2024-02-23T04:46:51;8.15;;;2.35;;
53710;SDS011;39605;52.704;6.752;2024-02-23T04:49:17;7.45;;;2.45;;
53710;SDS011;39605;52.704;6.752;2024-02-23T04:51:43;5.22;;;2.83;;
53710;SDS011;39605;52.704;6.752;2024-02-23T04:54:09;7.78;;;2.50;;
53710;SDS011;39605;52.704;6.752;2024-02-23T04:56:35;9.10;;;2.88;;
53710;SDS011;39605;52.704;6.752;2024-02-23T04:59:01;7.50;;;2.33;;
53710;SDS011;39605;52.704;6.752;2024-02-23T05:01:28;6.95;;;2.50;;
53710;SDS011;39605;52.704;6.752;2024-02-23T05:03:54;6.90;;;2.03;;
53710;SDS011;39605;52.704;6.752;2024-02-23T05:06:20;7.80;;;2.53;;
53710;SDS011;39605;52.704;6.752;2024-02-23T05:08:46;7.00;;;2.47;;
53710;SDS011;39605;52.704;6.752;2024-02-23T05:11:14;7.50;;;2.40;;
53710;SDS011;39605;52.704;6.752;2024-02-23T05:13:41;4.82;;;2.00;;
53710;SDS011;39605;52.704;6.752;2024-02-23T05:16:07;7.80;;;2.28;;
53710;SDS011;39605;52.704;6.752;2024-02-23T05:18:33;7.63;;;2.38;;
53710;SDS011;39605;52.704;6.752;2024-02-23T05:21:00;11.15;;;2.55;;
53710;SDS011;39605;52.704;6.752;2024-02-23T05:23:26;8.13;;;2.50;;
53710;SDS011;39605;52.704;6.752;2024-02-23T05:25:52;5.47;;;1.92;;
53710;SDS011;39605;52.704;6.752;2024-02-23T05:28:18;5.07;;;2.00;;
53710;SDS011;39605;52.704;6.752;2024-02-23T05:30:44;8.05;;;2.40;;
53710;SDS011;39605;52.704;6.752;2024-02-23T05:33:10;4.93;;;1.90;;
53710;SDS011;39605;52.704;6.752;2024-02-23T05:35:36;6.68;;;2.40;;
53710;SDS011;39605;52.704;6.752;2024-02-23T05:38:02;6.38;;;2.75;;
53710;SDS011;39605;52.704;6.752;2024-02-23T05:40:29;5.90;;;2.30;;
53710;SDS011;39605;52.704;6.752;2024-02-23T05:42:55;4.82;;;1.65;;
53710;SDS011;39605;52.704;6.752;2024-02-23T05:45:21;7.75;;;2.35;;
53710;SDS011;39605;52.704;6.752;2024-02-23T05:47:47;10.45;;;2.60;;
53710;SDS011;39605;52.704;6.752;2024-02-23T05:50:13;6.00;;;2.22;;
53710;SDS011;39605;52.704;6.752;2024-02-23T05:52:39;6.55;;;2.55;;
53710;SDS011;39605;52.704;6.752;2024-02-23T05:55:06;12.93;;;3.15;;
53710;SDS011;39605;52.704;6.752;2024-02-23T05:57:32;10.63;;;2.45;;
53710;SDS011;39605;52.704;6.752;2024-02-23T05:59:58;9.00;;;2.70;;
53710;SDS011;39605;52.704;6.752;2024-02-23T06:02:25;9.98;;;2.30;;
53710;SDS011;39605;52.704;6.752;2024-02-23T06:04:51;5.22;;;2.10;;
53710;SDS011;39605;52.704;6.752;2024-02-23T06:07:17;7.07;;;2.35;;
53710;SDS011;39605;52.704;6.752;2024-02-23T06:09:45;8.80;;;2.75;;
53710;SDS011;39605;52.704;6.752;2024-02-23T06:12:11;6.35;;;2.35;;
53710;SDS011;39605;52.704;6.752;2024-02-23T06:14:37;9.82;;;2.50;;
53710;SDS011;39605;52.704;6.752;2024-02-23T06:17:04;6.38;;;1.63;;
53710;SDS011;39605;52.704;6.752;2024-02-23T06:19:31;6.43;;;2.45;;
53710;SDS011;39605;52.704;6.752;2024-02-23T06:21:57;8.30;;;2.55;;
53710;SDS011;39605;52.704;6.752;2024-02-23T06:24:24;6.88;;;2.42;;
53710;SDS011;39605;52.704;6.752;2024-02-23T06:26:50;7.32;;;3.10;;
53710;SDS011;39605;52.704;6.752;2024-02-23T06:29:17;6.30;;;2.40;;
53710;SDS011;39605;52.704;6.752;2024-02-23T06:31:43;6.70;;;1.73;;
53710;SDS011;39605;52.704;6.752;2024-02-23T06:34:14;9.93;;;2.28;;
53710;SDS011;39605;52.704;6.752;2024-02-23T06:36:40;7.03;;;2.28;;
53710;SDS011;39605;52.704;6.752;2024-02-23T06:39:06;8.65;;;3.20;;
53710;SDS011;39605;52.704;6.752;2024-02-23T06:41:32;6.00;;;2.53;;
53710;SDS011;39605;52.704;6.752;2024-02-23T06:43:58;5.53;;;1.92;;
53710;SDS011;39605;52.704;6.752;2024-02-23T06:46:24;10.38;;;2.42;;
53710;SDS011;39605;52.704;6.752;2024-02-23T06:48:50;6.97;;;1.55;;
53710;SDS011;39605;52.704;6.752;2024-02-23T06:51:16;11.02;;;1.67;;
53710;SDS011;39605;52.704;6.752;2024-02-23T06:53:45;6.63;;;1.50;;
53710;SDS011;39605;52.704;6.752;2024-02-23T06:56:12;7.05;;;1.23;;
53710;SDS011;39605;52.704;6.752;2024-02-23T06:58:38;5.32;;;1.08;;
53710;SDS011;39605;52.704;6.752;2024-02-23T07:01:04;10.20;;;1.55;;
53710;SDS011;39605;52.704;6.752;2024-02-23T07:03:32;6.15;;;1.30;;
53710;SDS011;39605;52.704;6.752;2024-02-23T07:05:58;7.90;;;1.77;;
53710;SDS011;39605;52.704;6.752;2024-02-23T07:08:24;4.80;;;1.02;;
53710;SDS011;39605;52.704;6.752;2024-02-23T07:10:50;4.70;;;0.73;;
53710;SDS011;39605;52.704;6.752;2024-02-23T07:13:16;6.55;;;1.35;;
53710;SDS011;39605;52.704;6.752;2024-02-23T07:15:43;4.53;;;0.90;;
53710;SDS011;39605;52.704;6.752;2024-02-23T07:18:09;2.53;;;0.80;;
53710;SDS011;39605;52.704;6.752;2024-02-23T07:20:35;5.03;;;1.23;;
53710;SDS011;39605;52.704;6.752;2024-02-23T07:23:01;8.63;;;1.15;;
53710;SDS011;39605;52.704;6.752;2024-02-23T07:25:27;4.25;;;1.10;;
53710;SDS011;39605;52.704;6.752;2024-02-23T07:27:53;5.30;;;0.95;;
53710;SDS011;39605;52.704;6.752;2024-02-23T07:30:20;6.13;;;1.02;;
53710;SDS011;39605;52.704;6.752;2024-02-23T07:32:46;4.15;;;1.20;;
53710;SDS011;39605;52.704;6.752;2024-02-23T07:35:12;6.35;;;1.20;;
53710;SDS011;39605;52.704;6.752;2024-02-23T07:37:38;5.40;;;0.73;;
53710;SDS011;39605;52.704;6.752;2024-02-23T07:40:05;6.72;;;1.10;;
53710;SDS011;39605;52.704;6.752;2024-02-23T07:42:31;2.92;;;0.75;;
53710;SDS011;39605;52.704;6.752;2024-02-23T07:44:58;7.28;;;1.35;;
53710;SDS011;39605;52.704;6.752;2024-02-23T07:47:24;5.43;;;0.73;;
53710;SDS011;39605;52.704;6.752;2024-02-23T07:49:52;4.47;;;1.45;;
53710;SDS011;39605;52.704;6.752;2024-02-23T07:52:18;4.82;;;0.60;;
53710;SDS011;39605;52.704;6.752;2024-02-23T07:54:44;3.53;;;0.60;;
53710;SDS011;39605;52.704;6.752;2024-02-23T07:57:10;4.13;;;0.82;;
53710;SDS011;39605;52.704;6.752;2024-02-23T07:59:38;5.57;;;0.70;;
53710;SDS011;39605;52.704;6.752;2024-02-23T08:02:04;4.45;;;0.50;;
53710;SDS011;39605;52.704;6.752;2024-02-23T08:04:30;4.68;;;0.68;;
53710;SDS011;39605;52.704;6.752;2024-02-23T08:06:57;3.92;;;0.63;;
53710;SDS011;39605;52.704;6.752;2024-02-23T08:09:23;2.67;;;0.45;;
53710;SDS011;39605;52.704;6.752;2024-02-23T08:11:49;6.68;;;0.90;;
53710;SDS011;39605;52.704;6.752;2024-02-23T08:14:16;2.85;;;0.35;;
53710;SDS011;39605;52.704;6.752;2024-02-23T08:16:42;3.35;;;0.40;;
53710;SDS011;39605;52.704;6.752;2024-02-23T08:19:08;2.42;;;0.40;;
53710;SDS011;39605;52.704;6.752;2024-02-23T08:21:34;2.65;;;0.50;;
53710;SDS011;39605;52.704;6.752;2024-02-23T08:24:01;2.35;;;0.30;;
53710;SDS011;39605;52.704;6.752;2024-02-23T08:26:28;6.22;;;0.30;;
53710;SDS011;39605;52.704;6.752;2024-02-23T08:28:54;3.45;;;0.52;;
53710;SDS011;39605;52.704;6.752;2024-02-23T08:31:20;4.03;;;0.30;;
53710;SDS011;39605;52.704;6.752;2024-02-23T08:33:46;5.60;;;0.50;;
53710;SDS011;39605;52.704;6.752;2024-02-23T08:36:12;2.95;;;0.22;;
53710;SDS011;39605;52.704;6.752;2024-02-23T08:38:38;2.28;;;0.25;;
53710;SDS011;39605;52.704;6.752;2024-02-23T08:41:04;5.03;;;0.52;;
53710;SDS011;39605;52.704;6.752;2024-02-23T08:43:30;2.65;;;0.30;;
53710;SDS011;39605;52.704;6.752;2024-02-23T08:45:56;3.47;;;0.35;;
53710;SDS011;39605;52.704;6.752;2024-02-23T08:48:22;3.90;;;0.25;;
53710;SDS011;39605;52.704;6.752;2024-02-23T08:50:49;3.13;;;0.30;;
53710;SDS011;39605;52.704;6.752;2024-02-23T08:53:15;4.35;;;0.30;;
53710;SDS011;39605;52.704;6.752;2024-02-23T08:55:41;6.65;;;0.50;;
53710;SDS011;39605;52.704;6.752;2024-02-23T08:58:07;5.35;;;0.30;;
53710;SDS011;39605;52.704;6.752;2024-02-23T09:00:34;5.03;;;1.45;;
53710;SDS011;39605;52.704;6.752;2024-02-23T09:03:02;3.90;;;0.40;;
53710;SDS011;39605;52.704;6.752;2024-02-23T09:05:28;2.70;;;0.43;;
53710;SDS011;39605;52.704;6.752;2024-02-23T09:07:54;7.03;;;0.50;;
53710;SDS011;39605;52.704;6.752;2024-02-23T09:10:20;5.10;;;0.32;;
53710;SDS011;39605;52.704;6.752;2024-02-23T09:12:46;3.90;;;0.50;;
53710;SDS011;39605;52.704;6.752;2024-02-23T09:15:12;6.20;;;0.35;;
53710;SDS011;39605;52.704;6.752;2024-02-23T09:17:41;7.13;;;0.68;;
53710;SDS011;39605;52.704;6.752;2024-02-23T09:20:07;4.03;;;0.50;;
53710;SDS011;39605;52.704;6.752;2024-02-23T09:22:34;4.95;;;0.77;;
53710;SDS011;39605;52.704;6.752;2024-02-23T09:25:01;4.28;;;0.30;;
53710;SDS011;39605;52.704;6.752;2024-02-23T09:27:28;2.35;;;0.30;;
53710;SDS011;39605;52.704;6.752;2024-02-23T09:29:54;3.90;;;0.40;;
53710;SDS011;39605;52.704;6.752;2024-02-23T09:32:20;3.80;;;0.30;;
53710;SDS011;39605;52.704;6.752;2024-02-23T09:34:46;2.42;;;0.30;;
53710;SDS011;39605;52.704;6.752;2024-02-23T09:37:12;3.33;;;0.50;;
53710;SDS011;39605;52.704;6.752;2024-02-23T09:39:38;6.75;;;0.30;;
53710;SDS011;39605;52.704;6.752;2024-02-23T09:42:04;1.30;;;0.30;;
53710;SDS011;39605;52.704;6.752;2024-02-23T09:44:35;5.10;;;0.40;;
53710;SDS011;39605;52.704;6.752;2024-02-23T09:47:02;2.30;;;0.30;;
53710;SDS011;39605;52.704;6.752;2024-02-23T09:49:37;4.68;;;0.30;;
53710;SDS011;39605;52.704;6.752;2024-02-23T09:52:05;4.07;;;0.40;;
53710;SDS011;39605;52.704;6.752;2024-02-23T09:54:33;3.65;;;0.40;;
53710;SDS011;39605;52.704;6.752;2024-02-23T09:56:59;9.52;;;0.70;;
53710;SDS011;39605;52.704;6.752;2024-02-23T09:59:26;3.05;;;0.30;;
53710;SDS011;39605;52.704;6.752;2024-02-23T10:01:53;5.78;;;0.30;;
53710;SDS011;39605;52.704;6.752;2024-02-23T10:04:19;2.40;;;0.30;;
53710;SDS011;39605;52.704;6.752;2024-02-23T10:06:45;4.13;;;0.40;;
53710;SDS011;39605;52.704;6.752;2024-02-23T10:09:11;2.10;;;0.22;;
53710;SDS011;39605;52.704;6.752;2024-02-23T10:11:37;2.58;;;0.30;;
53710;SDS011;39605;52.704;6.752;2024-02-23T10:14:04;5.97;;;0.30;;
53710;SDS011;39605;52.704;6.752;2024-02-23T10:16:30;4.97;;;0.70;;
53710;SDS011;39605;52.704;6.752;2024-02-23T10:18:57;6.10;;;0.40;;
53710;SDS011;39605;52.704;6.752;2024-02-23T10:21:23;5.30;;;0.40;;
53710;SDS011;39605;52.704;6.752;2024-02-23T10:23:50;2.90;;;0.45;;
53710;SDS011;39605;52.704;6.752;2024-02-23T10:26:17;5.30;;;0.25;;
53710;SDS011;39605;52.704;6.752;2024-02-23T10:28:44;3.55;;;0.32;;
53710;SDS011;39605;52.704;6.752;2024-02-23T10:31:15;5.00;;;0.30;;
53710;SDS011;39605;52.704;6.752;2024-02-23T10:33:41;3.60;;;0.30;;
53710;SDS011;39605;52.704;6.752;2024-02-23T10:36:08;3.47;;;0.20;;
53710;SDS011;39605;52.704;6.752;2024-02-23T10:38:37;2.45;;;0.30;;
53710;SDS011;39605;52.704;6.752;2024-02-23T10:41:06;4.28;;;0.40;;
53710;SDS011;39605;52.704;6.752;2024-02-23T10:43:36;2.20;;;0.30;;
53710;SDS011;39605;52.704;6.752;2024-02-23T10:46:04;19.23;;;1.27;;
53710;SDS011;39605;52.704;6.752;2024-02-23T10:48:33;2.83;;;0.50;;
53710;SDS011;39605;52.704;6.752;2024-02-23T10:51:00;3.33;;;0.40;;
53710;SDS011;39605;52.704;6.752;2024-02-23T10:53:26;13.40;;;1.27;;
53710;SDS011;39605;52.704;6.752;2024-02-23T10:55:56;3.33;;;0.40;;
53710;SDS011;39605;52.704;6.752;2024-02-23T10:58:23;3.28;;;0.22;;
53710;SDS011;39605;52.704;6.752;2024-02-23T11:00:49;6.07;;;0.30;;
53710;SDS011;39605;52.704;6.752;2024-02-23T11:03:15;5.85;;;0.30;;
53710;SDS011;39605;52.704;6.752;2024-02-23T11:05:42;3.13;;;0.20;;
53710;SDS011;39605;52.704;6.752;2024-02-23T11:08:08;3.10;;;0.40;;
53710;SDS011;39605;52.704;6.752;2024-02-23T11:10:41;4.65;;;0.30;;
53710;SDS011;39605;52.704;6.752;2024-02-23T11:13:07;5.15;;;0.45;;
53710;SDS011;39605;52.704;6.752;2024-02-23T11:15:34;1.83;;;0.22;;
53710;SDS011;39605;52.704;6.752;2024-02-23T11:18:20;2.70;;;0.20;;
53710;SDS011;39605;52.704;6.752;2024-02-23T11:20:53;3.92;;;0.40;;
53710;SDS011;39605;52.704;6.752;2024-02-23T11:23:19;2.75;;;0.20;;
53710;SDS011;39605;52.704;6.752;2024-02-23T11:25:58;4.50;;;0.30;;
53710;SDS011;39605;52.704;6.752;2024-02-23T11:28:25;3.97;;;0.55;;
53710;SDS011;39605;52.704;6.752;2024-02-23T11:30:51;5.63;;;0.40;;
53710;SDS011;39605;52.704;6.752;2024-02-23T11:33:25;2.60;;;0.30;;
53710;SDS011;39605;52.704;6.752;2024-02-23T11:35:51;3.95;;;0.35;;
53710;SDS011;39605;52.704;6.752;2024-02-23T11:38:18;3.53;;;0.28;;
53710;SDS011;39605;52.704;6.752;2024-02-23T11:40:46;7.93;;;0.50;;
53710;SDS011;39605;52.704;6.752;2024-02-23T11:43:12;4.07;;;0.30;;
53710;SDS011;39605;52.704;6.752;2024-02-23T11:45:38;4.50;;;0.40;;
53710;SDS011;39605;52.704;6.752;2024-02-23T11:48:06;3.45;;;0.57;;
53710;SDS011;39605;52.704;6.752;2024-02-23T11:50:32;5.07;;;0.40;;
53710;SDS011;39605;52.704;6.752;2024-02-23T11:52:59;2.28;;;0.30;;
53710;SDS011;39605;52.704;6.752;2024-02-23T11:55:26;2.00;;;0.35;;
53710;SDS011;39605;52.704;6.752;2024-02-23T11:57:52;3.13;;;0.60;;
53710;SDS011;39605;52.704;6.752;2024-02-23T12:00:18;3.50;;;0.47;;
53710;SDS011;39605;52.704;6.752;2024-02-23T12:02:44;2.60;;;0.40;;
53710;SDS011;39605;52.704;6.752;2024-02-23T12:05:13;2.45;;;0.30;;
53710;SDS011;39605;52.704;6.752;2024-02-23T12:07:40;4.82;;;0.40;;
53710;SDS011;39605;52.704;6.752;2024-02-23T12:10:07;2.85;;;0.30;;
53710;SDS011;39605;52.704;6.752;2024-02-23T12:12:33;3.20;;;0.30;;
53710;SDS011;39605;52.704;6.752;2024-02-23T12:14:59;2.55;;;0.20;;
53710;SDS011;39605;52.704;6.752;2024-02-23T12:17:25;6.70;;;0.30;;
53710;SDS011;39605;52.704;6.752;2024-02-23T12:20:01;5.07;;;0.30;;
53710;SDS011;39605;52.704;6.752;2024-02-23T12:22:28;2.35;;;0.20;;
53710;SDS011;39605;52.704;6.752;2024-02-23T12:24:57;3.97;;;0.35;;
53710;SDS011;39605;52.704;6.752;2024-02-23T12:27:23;5.28;;;0.40;;
53710;SDS011;39605;52.704;6.752;2024-02-23T12:29:51;5.15;;;0.35;;
53710;SDS011;39605;52.704;6.752;2024-02-23T12:32:19;2.10;;;0.30;;
53710;SDS011;39605;52.704;6.752;2024-02-23T12:34:45;5.32;;;0.40;;
53710;SDS011;39605;52.704;6.752;2024-02-23T12:37:15;2.65;;;0.30;;
53710;SDS011;39605;52.704;6.752;2024-02-23T12:39:42;3.58;;;0.40;;
53710;SDS011;39605;52.704;6.752;2024-02-23T12:42:08;6.00;;;0.63;;
53710;SDS011;39605;52.704;6.752;2024-02-23T12:44:34;5.55;;;0.50;;
53710;SDS011;39605;52.704;6.752;2024-02-23T12:47:00;2.25;;;0.50;;
53710;SDS011;39605;52.704;6.752;2024-02-23T12:49:26;6.55;;;0.50;;
53710;SDS011;39605;52.704;6.752;2024-02-23T12:51:53;2.22;;;0.40;;
53710;SDS011;39605;52.704;6.752;2024-02-23T12:54:19;2.40;;;0.30;;
53710;SDS011;39605;52.704;6.752;2024-02-23T12:56:45;5.28;;;0.32;;
53710;SDS011;39605;52.704;6.752;2024-02-23T12:59:11;3.40;;;0.50;;
53710;SDS011;39605;52.704;6.752;2024-02-23T13:01:37;1.95;;;0.30;;
53710;SDS011;39605;52.704;6.752;2024-02-23T13:04:04;4.32;;;0.30;;
53710;SDS011;39605;52.704;6.752;2024-02-23T13:06:38;2.97;;;0.30;;
53710;SDS011;39605;52.704;6.752;2024-02-23T13:09:05;2.38;;;0.20;;
53710;SDS011;39605;52.704;6.752;2024-02-23T13:11:35;16.60;;;1.20;;
53710;SDS011;39605;52.704;6.752;2024-02-23T13:14:03;17.13;;;1.20;;
53710;SDS011;39605;52.704;6.752;2024-02-23T13:16:29;3.35;;;0.35;;
53710;SDS011;39605;52.704;6.752;2024-02-23T13:18:55;1.73;;;0.30;;
53710;SDS011;39605;52.704;6.752;2024-02-23T13:21:21;11.73;;;1.13;;
53710;SDS011;39605;52.704;6.752;2024-02-23T13:23:49;3.17;;;0.30;;
53710;SDS011;39605;52.704;6.752;2024-02-23T13:26:15;1.45;;;0.20;;
53710;SDS011;39605;52.704;6.752;2024-02-23T13:28:41;2.97;;;0.50;;
53710;SDS011;39605;52.704;6.752;2024-02-23T13:31:08;10.02;;;0.50;;
53710;SDS011;39605;52.704;6.752;2024-02-23T13:33:34;4.72;;;0.57;;
53710;SDS011;39605;52.704;6.752;2024-02-23T13:36:00;3.45;;;0.40;;
53710;SDS011;39605;52.704;6.752;2024-02-23T13:38:26;3.03;;;0.20;;
53710;SDS011;39605;52.704;6.752;2024-02-23T13:40:52;1.40;;;0.30;;
53710;SDS011;39605;52.704;6.752;2024-02-23T13:43:19;3.58;;;0.30;;
53710;SDS011;39605;52.704;6.752;2024-02-23T13:45:51;10.90;;;0.80;;
53710;SDS011;39605;52.704;6.752;2024-02-23T13:48:18;3.63;;;0.40;;
53710;SDS011;39605;52.704;6.752;2024-02-23T13:50:44;2.53;;;0.30;;
53710;SDS011;39605;52.704;6.752;2024-02-23T13:53:11;3.90;;;0.40;;
53710;SDS011;39605;52.704;6.752;2024-02-23T13:55:40;8.25;;;0.60;;
53710;SDS011;39605;52.704;6.752;2024-02-23T13:58:10;3.47;;;0.40;;
53710;SDS011;39605;52.704;6.752;2024-02-23T14:00:37;5.85;;;0.88;;
53710;SDS011;39605;52.704;6.752;2024-02-23T14:03:03;4.45;;;0.50;;
53710;SDS011;39605;52.704;6.752;2024-02-23T14:05:29;13.10;;;0.98;;
53710;SDS011;39605;52.704;6.752;2024-02-23T14:07:55;11.00;;;0.57;;
53710;SDS011;39605;52.704;6.752;2024-02-23T14:10:21;4.63;;;0.30;;
53710;SDS011;39605;52.704;6.752;2024-02-23T14:12:48;2.65;;;0.43;;
53710;SDS011;39605;52.704;6.752;2024-02-23T14:15:15;2.08;;;0.57;;
53710;SDS011;39605;52.704;6.752;2024-02-23T14:17:42;1.80;;;0.40;;
53710;SDS011;39605;52.704;6.752;2024-02-23T14:20:08;2.28;;;0.40;;
53710;SDS011;39605;52.704;6.752;2024-02-23T14:22:34;9.07;;;0.80;;
53710;SDS011;39605;52.704;6.752;2024-02-23T14:25:00;7.57;;;0.55;;
53710;SDS011;39605;52.704;6.752;2024-02-23T14:27:26;7.63;;;0.80;;
53710;SDS011;39605;52.704;6.752;2024-02-23T14:29:53;3.42;;;0.30;;
53710;SDS011;39605;52.704;6.752;2024-02-23T14:32:19;8.10;;;0.63;;
53710;SDS011;39605;52.704;6.752;2024-02-23T14:34:46;4.55;;;0.52;;
53710;SDS011;39605;52.704;6.752;2024-02-23T14:37:12;4.50;;;0.55;;
53710;SDS011;39605;52.704;6.752;2024-02-23T14:39:38;2.13;;;0.30;;
53710;SDS011;39605;52.704;6.752;2024-02-23T14:42:04;2.28;;;0.65;;
53710;SDS011;39605;52.704;6.752;2024-02-23T14:44:33;5.05;;;0.82;;